Latest Weather Observations for Norfolk Island

IDN60801

Issued at 11:35 am EST Tuesday 2 September 2014 (issued every 30 minutes, with the page automatically refreshed every 10 minutes)

About weather observations | Map of weather stations | Latest weather observations for NSW | Other Formats
Station Details ID: 200288 Name: NORFOLK ISLAND AERO Lat: -29.04 Lon: 167.94 Height: 111.73 m
Data from the previous 72 hours. | See also: Recent months at Norfolk Island
Date/Time
EST
Temp
°C
App
Temp
°C
Dew
Point
Rel
Hum
%
Delta-T
°C
Wind Press
QNH
hPa
Press
MSL
hPa
Rain
since 9 am
mm
Dir
 
Spd
km/h
Gust
km/h
Spd
kts
Gust
kts
02/11:30am 18.7 16.9 12.2 66 3.6 W 13 19 7 10 1016.0 - 0.2
02/11:00am 18.2 16.3 11.7 66 3.6 WSW 13 20 7 11 1016.0 - 0.2
02/10:30am 17.8 16.3 11.8 68 3.3 WSW 11 17 6 9 1016.3 1016.1 0.2
02/10:00am 18.5 17.2 12.4 67 3.4 W 11 19 6 10 1016.7 - 0.2
02/09:30am 18.2 16.8 12.3 68 3.3 W 11 17 6 9 1016.8 - 0.2
02/09:00am 18.5 17.5 12.2 66 3.5 W 9 15 5 8 1016.9 - 0.2
02/08:30am 17.5 16.7 12.9 74 2.6 W 9 15 5 8 1017.1 - 0.0
02/08:00am 17.4 16.0 13.3 77 2.3 W 13 17 7 9 1017.3 - 0.0
02/07:30am 16.9 15.7 13.9 82 1.7 WSW 13 19 7 10 1017.3 1017.1 0.2
02/07:00am 17.1 14.8 11.8 71 2.9 SW 15 17 8 9 1017.2 - 0.2
02/06:30am 16.7 15.3 12.2 75 2.5 SW 11 15 6 8 1016.8 - 0.2
02/06:00am 16.2 14.4 12.2 77 2.2 SW 13 19 7 10 1016.5 - 0.2
02/05:30am 15.3 13.3 11.6 78 2.0 SW 13 17 7 9 1016.3 - 0.2
02/05:00am 14.8 13.2 11.7 82 1.7 SSW 11 15 6 8 1016.1 - 0.2
02/04:30am 15.3 13.4 11.8 79 1.9 SW 13 17 7 9 1015.8 1015.6 0.2
02/04:00am 15.7 13.4 11.8 77 2.1 SW 15 19 8 10 1015.6 - 0.2
02/03:30am 15.4 14.0 12.3 82 1.7 SSW 11 17 6 9 1015.4 - 0.2
02/03:00am 15.2 13.8 12.3 83 1.6 SW 11 15 6 8 1015.1 - 0.2
02/02:30am 14.6 13.3 12.4 87 1.2 SW 11 15 6 8 1015.0 - 0.2
02/02:00am 14.5 13.1 12.1 85 1.3 WSW 11 13 6 7 1015.1 - 0.2
02/01:30am 15.0 13.9 12.1 83 1.6 SW 9 15 5 8 1015.2 1015.0 0.2
02/01:00am 15.7 13.5 12.0 78 2.0 SW 15 19 8 10 1015.3 - 0.2
02/12:30am 15.5 13.3 12.2 81 1.8 SW 15 22 8 12 1015.4 - 0.2
02/12:00am 15.8 13.3 12.3 80 1.9 SSW 17 26 9 14 1015.5 - 0.2
 
Date/Time
EST
Temp
°C
App
Temp
°C
Dew
Point
Rel
Hum
%
Delta-T
°C
Wind Press
QNH
hPa
Press
MSL
hPa
Rain
since 9 am
mm
Dir
 
Spd
km/h
Gust
km/h
Spd
kts
Gust
kts
01/11:30pm 15.8 14.1 12.5 81 1.8 SW 13 20 7 11 1015.6 - 0.2
01/11:00pm 15.9 13.5 12.5 80 1.9 SW 17 22 9 12 1015.7 - 0.2
01/10:30pm 16.0 14.1 13.1 83 1.6 SSW 15 22 8 12 1015.6 1015.4 0.2
01/10:00pm 15.9 13.6 13.0 83 1.6 SW 17 26 9 14 1015.7 - 0.2
01/09:30pm 15.9 13.2 13.0 83 1.6 SW 19 26 10 14 1015.4 - 0.2
01/09:00pm 16.1 13.5 13.2 83 1.6 SW 19 26 10 14 1015.5 - 0.2
01/08:30pm 16.1 13.6 13.4 84 1.5 SW 19 30 10 16 1015.6 - 0.2
01/08:00pm 16.2 13.5 12.8 80 1.9 SW 19 28 10 15 1015.7 - 0.2
01/07:30pm 16.3 13.8 13.5 83 1.6 WSW 19 26 10 14 1015.5 1015.3 0.2
01/07:00pm 16.3 13.6 13.6 84 1.5 WSW 20 28 11 15 1015.1 - 0.2
01/06:28pm 16.7 14.3 13.9 83 1.6 WSW 19 26 10 14 1015.2 - 0.2
01/06:00pm 16.4 13.8 13.8 84 1.5 WSW 20 28 11 15 1014.8 - 0.2
01/05:30pm 16.6 14.1 14.0 84 1.5 WSW 20 28 11 15 1014.7 - 0.2
01/05:00pm 16.4 13.9 14.1 86 1.3 W 20 35 11 19 1014.2 - 0.2
01/04:30pm 16.7 13.8 14.1 85 1.5 WSW 22 30 12 16 1013.8 1013.7 0.2
01/04:00pm 16.6 13.2 13.8 83 1.6 WSW 24 35 13 19 1013.7 - 0.2
01/03:30pm 17.9 13.4 13.9 77 2.3 W 30 37 16 20 1013.5 - 0.2
01/03:00pm 18.2 14.1 13.7 75 2.6 W 28 37 15 20 1013.1 - 0.2
01/02:30pm 18.5 14.5 14.0 75 2.6 W 28 37 15 20 1012.8 - 0.2
01/02:00pm 18.6 14.8 13.5 72 2.9 W 26 37 14 20 1012.6 - 0.2
01/01:30pm 18.4 15.3 14.6 78 2.2 W 24 32 13 17 1012.8 1012.7 0.2
01/01:00pm 18.5 15.4 14.5 77 2.3 W 24 33 13 18 1013.0 - 0.2
01/12:30pm 18.7 15.9 14.4 76 2.5 W 22 35 12 19 1013.2 - 0.2
01/12:00pm 18.7 14.9 14.6 77 2.4 W 28 37 15 20 1013.2 - 0.2
01/11:30am 19.4 16.3 14.6 74 2.8 W 24 33 13 18 1013.5 - 0.2
01/11:00am 19.3 15.4 14.5 74 2.8 W 28 37 15 20 1013.6 - 0.2
01/10:30am 19.1 15.6 14.6 75 2.6 W 26 35 14 19 1013.7 1013.6 0.2
01/10:07am 19.4 16.5 15.0 75 2.6 W 24 33 13 18 1013.8 - 0.2
01/10:00am 19.0 15.3 14.9 77 2.4 W 28 35 15 19 1013.8 - 0.0
01/09:30am 19.4 16.1 15.0 75 2.6 W 26 35 14 19 1013.9 - 0.0
01/09:00am 18.9 16.3 15.0 78 2.3 W 22 33 12 18 1013.8 - 0.0
01/08:30am 18.0 14.7 14.9 82 1.8 WNW 26 35 14 19 1014.1 - 0.0
01/08:00am 18.5 15.1 14.7 78 2.2 WNW 26 35 14 19 1014.1 - 0.0
01/07:30am 18.5 15.5 14.7 78 2.2 WNW 24 35 13 19 1014.1 1013.9 0.6
01/07:00am 18.1 15.0 14.5 79 2.1 WNW 24 35 13 19 1013.8 - 0.6
01/06:30am 17.6 15.6 15.0 85 1.5 WNW 19 32 10 17 1013.2 - 0.6
01/06:00am 17.3 15.8 15.3 88 1.2 WNW 17 28 9 15 1013.0 - 0.6
01/05:30am 16.7 14.6 14.8 88 1.1 WNW 19 28 10 15 1012.9 - 0.6
01/05:00am 16.6 14.2 14.3 86 1.3 W 20 32 11 17 1012.7 - 0.6
01/04:30am 16.9 14.2 14.7 87 1.3 WNW 22 30 12 16 1012.2 1012.1 0.6
01/04:00am 16.8 14.6 14.9 88 1.1 NW 20 28 11 15 1011.9 - 0.6
01/03:30am 16.7 13.6 14.4 86 1.3 W 24 33 13 18 1011.9 - 0.6
01/03:00am 17.3 14.0 14.0 81 1.9 WNW 24 37 13 20 1011.7 - 0.6
01/02:30am 16.8 13.8 13.8 82 1.7 WNW 22 41 12 22 1011.6 - 0.6
01/02:00am 17.7 15.8 15.3 86 1.4 NW 19 33 10 18 1011.6 - 0.6
01/01:30am 17.5 16.0 15.3 87 1.3 NW 17 28 9 15 1011.9 1011.8 0.6
01/01:00am 17.6 15.8 15.4 87 1.3 NW 19 26 10 14 1012.1 - 0.6
01/12:30am 17.5 15.7 15.5 88 1.2 NW 19 28 10 15 1012.4 - 0.6
01/12:00am 17.5 16.0 15.3 87 1.3 NW 17 28 9 15 1012.7 - 0.6
 
Date/Time
EST
Temp
°C
App
Temp
°C
Dew
Point
Rel
Hum
%
Delta-T
°C
Wind Press
QNH
hPa
Press
MSL
hPa
Rain
since 9 am
mm
Dir
 
Spd
km/h
Gust
km/h
Spd
kts
Gust
kts
31/11:30pm 17.4 16.3 15.4 88 1.2 NW 15 28 8 15 1012.9 - 0.6
31/11:00pm 17.3 16.3 15.6 90 1.0 NW 15 20 8 11 1013.0 - 0.6
31/10:30pm 17.4 16.4 15.5 89 1.1 NW 15 22 8 12 1013.3 1013.2 0.6
31/10:00pm 17.2 16.1 15.3 88 1.1 NW 15 19 8 10 1013.6 - 0.6
31/09:30pm 17.2 16.5 15.3 88 1.1 NW 13 20 7 11 1013.2 - 0.6
31/09:00pm 17.4 16.3 15.2 87 1.3 NW 15 26 8 14 1013.3 - 0.6
31/08:30pm 17.5 16.0 15.3 87 1.3 NW 17 30 9 16 1013.3 - 0.6
31/08:00pm 17.6 16.0 15.0 85 1.5 NW 17 26 9 14 1013.2 - 0.6
31/07:30pm 17.9 17.5 16.1 89 1.1 NW 13 26 7 14 1013.2 1013.1 0.6
31/07:00pm 17.6 16.8 16.1 91 0.9 NW 15 20 8 11 1013.1 - 0.6
31/06:30pm 17.5 16.2 15.8 90 1.0 NNW 17 28 9 15 1013.0 - 0.6
31/06:00pm 17.4 16.5 15.9 91 0.9 NNW 15 24 8 13 1012.8 - 0.6
31/05:40pm 17.5 16.9 15.6 89 1.1 N 13 22 7 12 1012.6 - 0.6
31/05:30pm 17.5 16.8 15.3 87 1.3 NNW 13 22 7 12 1012.6 - 0.6
31/05:00pm 17.4 15.9 15.2 87 1.3 NNW 17 28 9 15 1012.4 - 0.6
31/04:30pm 17.5 16.4 15.3 87 1.3 NNW 15 30 8 16 1012.4 1012.3 0.6
31/04:00pm 18.0 16.7 14.7 81 1.9 NW 15 28 8 15 1012.4 - 0.6
31/03:30pm 18.3 16.1 14.9 80 2.0 NW 20 35 11 19 1012.3 - 0.6
31/03:00pm 18.1 15.9 14.5 79 2.1 NW 19 28 10 15 1012.1 - 0.6
31/02:30pm 19.2 17.5 13.6 70 3.2 NNW 15 22 8 12 1012.0 - 0.6
31/02:00pm 18.3 16.6 13.6 74 2.7 NNW 15 28 8 15 1012.0 - 0.6
31/01:30pm 18.0 15.5 13.6 75 2.5 NNW 19 32 10 17 1012.1 1012.0 0.6
31/01:10pm 17.8 16.6 16.1 90 1.0 NW 17 26 9 14 1012.2 - 0.6
31/01:00pm 17.6 16.0 15.9 90 1.0 WNW 19 24 10 13 1012.4 - 0.6
31/12:50pm 17.7 15.3 14.4 81 1.9 NNW 20 32 11 17 1012.5 - 0.2
31/12:30pm 19.7 17.8 14.2 70 3.2 N 17 28 9 15 1012.5 - 0.2
31/12:00pm 19.6 17.7 14.1 70 3.2 N 17 28 9 15 1013.0 - 0.2
31/11:30am 19.2 16.7 13.6 70 3.2 N 19 32 10 17 1013.2 - 0.2
31/11:00am 19.4 16.8 13.9 70 3.2 N 20 30 11 16 1013.6 - 0.2
31/10:30am 19.6 17.8 13.3 67 3.6 N 15 24 8 13 1014.1 1013.9 0.0
31/10:00am 19.8 17.1 13.5 67 3.6 N 20 32 11 17 1014.4 - 0.0
31/09:30am 18.8 16.6 12.2 65 3.7 N 15 30 8 16 1014.6 - 0.0
31/09:00am 18.6 16.9 12.3 67 3.5 NNW 13 22 7 12 1014.8 - 0.0
31/08:30am 18.6 16.4 12.1 66 3.6 NNW 15 24 8 13 1015.0 - 0.0
31/08:00am 18.8 17.0 12.2 65 3.7 N 13 17 7 9 1015.2 - 0.0
31/07:30am 18.5 17.2 12.4 67 3.4 NNW 11 15 6 8 1015.1 1014.9 0.0
31/07:00am 17.9 17.0 12.7 71 2.9 NNW 9 13 5 7 1015.0 - 0.0
31/06:30am 17.3 16.9 13.0 76 2.4 N 7 11 4 6 1014.8 - 0.0
31/06:00am 16.5 16.1 12.9 79 2.0 N 7 11 4 6 1014.5 - 0.0
31/05:30am 15.3 14.7 12.2 82 1.7 N 7 9 4 5 1014.4 - 0.0
31/05:00am 15.0 14.5 12.1 83 1.6 N 6 9 3 5 1014.2 - 0.0
31/04:30am 15.0 14.5 12.1 83 1.6 N 6 9 3 5 1013.9 1013.8 0.0
31/04:00am 14.7 13.6 12.1 84 1.4 N 9 13 5 7 1013.8 - 0.0
31/03:30am 14.4 13.7 12.0 85 1.3 NNW 7 9 4 5 1013.7 - 0.0
31/03:00am 14.3 13.6 12.1 87 1.2 NW 7 11 4 6 1013.7 - 0.0
31/02:30am 14.3 13.3 12.3 88 1.1 WNW 9 11 5 6 1013.5 - 0.0
31/02:00am 14.1 13.1 12.3 89 1.0 NW 9 11 5 6 1013.5 - 0.0
31/01:30am 14.6 13.2 12.2 85 1.3 WNW 11 17 6 9 1013.6 1013.5 0.0
31/01:00am 14.1 13.0 12.1 88 1.1 WNW 9 13 5 7 1013.9 - 0.0
31/12:30am 13.9 13.3 12.2 89 0.9 NW 7 11 4 6 1014.2 - 0.0
31/12:00am 14.1 13.1 12.3 89 1.0 NW 9 13 5 7 1014.4 - 0.0
 
Date/Time
EST
Temp
°C
App
Temp
°C
Dew
Point
Rel
Hum
%
Delta-T
°C
Wind Press
QNH
hPa
Press
MSL
hPa
Rain
since 9 am
mm
Dir
 
Spd
km/h
Gust
km/h
Spd
kts
Gust
kts
30/11:30pm 13.9 12.9 12.4 91 0.8 NW 9 13 5 7 1014.7 - 0.0
30/11:00pm 13.8 12.4 12.3 91 0.8 NW 11 13 6 7 1014.8 - 0.0
30/10:30pm 13.8 12.4 12.1 89 0.9 NW 11 11 6 6 1014.9 1014.7 0.0
30/10:00pm 14.2 13.2 12.4 89 1.0 WNW 9 11 5 6 1014.9 - 0.0
30/09:30pm 14.5 13.9 12.3 87 1.2 NNW 7 9 4 5 1014.9 - 0.0
30/09:00pm 13.9 12.8 12.1 89 1.0 NW 9 9 5 5 1015.0 - 0.0
30/08:30pm 14.4 13.8 12.2 87 1.2 N 7 7 4 4 1015.0 - 0.0
30/08:00pm 14.2 14.9 12.2 88 1.1 CALM 0 0 0 0 1015.0 - 0.0
30/07:30pm 14.7 15.0 12.3 85 1.3 N 2 6 1 3 1014.9 1014.7 0.0
30/07:00pm 14.8 14.2 12.4 85 1.3 W 7 7 4 4 1014.9 - 0.0
30/06:30pm 14.6 14.0 12.4 87 1.2 W 7 9 4 5 1014.8 - 0.0
30/06:00pm 15.1 13.8 12.4 84 1.5 WSW 11 13 6 7 1014.6 - 0.0
30/05:30pm 15.6 14.7 12.7 83 1.6 W 9 9 5 5 1014.4 - 0.0
30/05:00pm 15.7 14.7 12.4 81 1.8 WSW 9 13 5 7 1014.3 - 0.0
30/04:30pm 16.5 15.1 12.3 76 2.3 W 11 13 6 7 1013.9 1013.8 0.0
30/04:00pm 17.6 15.8 12.2 70 3.0 W 13 15 7 8 1013.9 - 0.0
30/03:30pm 18.2 16.6 12.7 70 3.1 W 13 17 7 9 1013.8 - 0.0
30/03:00pm 18.4 16.5 13.1 71 3.0 W 15 22 8 12 1013.7 - 0.0
30/02:30pm 18.7 16.5 13.2 70 3.1 WSW 17 24 9 13 1013.6 - 0.0
30/02:00pm 19.2 17.9 14.8 75 2.6 W 15 19 8 10 1013.6 - 0.0
30/01:30pm 18.6 17.1 14.1 75 2.6 W 15 20 8 11 1013.6 1013.5 0.0
30/01:00pm 18.9 17.5 14.6 76 2.5 WSW 15 19 8 10 1013.6 - 0.0
30/12:30pm 19.0 17.9 14.2 73 2.8 WSW 13 19 7 10 1013.9 - 0.0
30/12:00pm 19.2 17.8 13.4 69 3.3 W 13 19 7 10 1014.2 - 0.0
30/11:30am 18.5 16.7 14.5 77 2.3 WSW 17 22 9 12 1014.5 - 0.0
30/11:00am 18.7 17.2 13.2 70 3.1 WSW 13 22 7 12 1014.8 - 0.0
30/10:30am 18.6 17.8 15.2 80 2.0 WSW 13 17 7 9 1015.1 1014.9 0.0

Other Formats:

Comma delimited format used in spreadsheet applications
http://www.bom.gov.au/fwo/IDN60801/IDN60801.94996.axf

JavaScript Object Notation format (JSON) in row-major order
http://www.bom.gov.au/fwo/IDN60801/IDN60801.94996.json